sensor_id;sensor_type;location;lat;lon;timestamp;temperature;humidity
11045;DHT22;9786;42.714;23.272;2024-02-26T00:01:07;8.50;81.80
11045;DHT22;9786;42.714;23.272;2024-02-26T00:03:36;8.50;81.50
11045;DHT22;9786;42.714;23.272;2024-02-26T00:06:07;8.50;81.50
11045;DHT22;9786;42.714;23.272;2024-02-26T00:08:39;8.50;81.60
11045;DHT22;9786;42.714;23.272;2024-02-26T00:11:08;8.50;81.50
11045;DHT22;9786;42.714;23.272;2024-02-26T00:13:37;8.50;81.40
11045;DHT22;9786;42.714;23.272;2024-02-26T00:16:08;8.40;81.70
11045;DHT22;9786;42.714;23.272;2024-02-26T00:18:37;8.50;81.50
11045;DHT22;9786;42.714;23.272;2024-02-26T00:21:09;8.50;81.50
11045;DHT22;9786;42.714;23.272;2024-02-26T00:23:38;8.50;81.50
11045;DHT22;9786;42.714;23.272;2024-02-26T00:26:07;8.40;81.40
11045;DHT22;9786;42.714;23.272;2024-02-26T00:28:38;8.50;81.60
11045;DHT22;9786;42.714;23.272;2024-02-26T00:31:09;8.50;81.60
11045;DHT22;9786;42.714;23.272;2024-02-26T00:33:37;8.50;81.10
11045;DHT22;9786;42.714;23.272;2024-02-26T00:36:07;8.50;81.10
11045;DHT22;9786;42.714;23.272;2024-02-26T00:38:36;8.50;81.20
11045;DHT22;9786;42.714;23.272;2024-02-26T00:41:07;8.60;80.90
11045;DHT22;9786;42.714;23.272;2024-02-26T00:43:36;8.50;81.00
11045;DHT22;9786;42.714;23.272;2024-02-26T00:46:05;8.50;81.60
11045;DHT22;9786;42.714;23.272;2024-02-26T00:48:36;8.50;81.40
11045;DHT22;9786;42.714;23.272;2024-02-26T00:51:05;8.50;81.70
11045;DHT22;9786;42.714;23.272;2024-02-26T00:53:36;8.50;81.60
11045;DHT22;9786;42.714;23.272;2024-02-26T00:56:08;8.40;81.70
11045;DHT22;9786;42.714;23.272;2024-02-26T00:58:38;8.40;81.70
11045;DHT22;9786;42.714;23.272;2024-02-26T01:01:08;8.40;81.60
11045;DHT22;9786;42.714;23.272;2024-02-26T01:03:41;8.50;82.00
11045;DHT22;9786;42.714;23.272;2024-02-26T01:06:13;8.50;81.80
11045;DHT22;9786;42.714;23.272;2024-02-26T01:08:42;8.50;81.60
11045;DHT22;9786;42.714;23.272;2024-02-26T01:11:11;8.50;82.20
11045;DHT22;9786;42.714;23.272;2024-02-26T01:13:44;8.60;82.30
11045;DHT22;9786;42.714;23.272;2024-02-26T01:16:14;8.60;82.50
11045;DHT22;9786;42.714;23.272;2024-02-26T01:18:44;8.70;82.40
11045;DHT22;9786;42.714;23.272;2024-02-26T01:21:14;8.70;82.40
11045;DHT22;9786;42.714;23.272;2024-02-26T01:23:43;8.70;82.40
11045;DHT22;9786;42.714;23.272;2024-02-26T01:26:14;8.70;82.30
11045;DHT22;9786;42.714;23.272;2024-02-26T01:28:43;8.80;82.80
11045;DHT22;9786;42.714;23.272;2024-02-26T01:31:15;8.80;82.70
11045;DHT22;9786;42.714;23.272;2024-02-26T01:33:46;8.80;82.70
11045;DHT22;9786;42.714;23.272;2024-02-26T01:36:15;8.80;82.60
11045;DHT22;9786;42.714;23.272;2024-02-26T01:38:47;8.70;82.30
11045;DHT22;9786;42.714;23.272;2024-02-26T01:41:16;8.80;82.20
11045;DHT22;9786;42.714;23.272;2024-02-26T01:43:46;8.80;82.10
11045;DHT22;9786;42.714;23.272;2024-02-26T01:46:17;8.80;82.00
11045;DHT22;9786;42.714;23.272;2024-02-26T01:48:49;8.80;82.20
11045;DHT22;9786;42.714;23.272;2024-02-26T01:51:18;8.80;82.00
11045;DHT22;9786;42.714;23.272;2024-02-26T01:53:47;8.80;81.80
11045;DHT22;9786;42.714;23.272;2024-02-26T01:56:19;8.80;81.50
11045;DHT22;9786;42.714;23.272;2024-02-26T01:58:49;8.80;81.60
11045;DHT22;9786;42.714;23.272;2024-02-26T02:01:19;8.90;81.70
11045;DHT22;9786;42.714;23.272;2024-02-26T02:03:52;8.90;81.40
11045;DHT22;9786;42.714;23.272;2024-02-26T02:06:21;8.90;81.40
11045;DHT22;9786;42.714;23.272;2024-02-26T02:08:53;8.90;81.40
11045;DHT22;9786;42.714;23.272;2024-02-26T02:11:22;8.90;81.40
11045;DHT22;9786;42.714;23.272;2024-02-26T02:13:51;9.00;81.40
11045;DHT22;9786;42.714;23.272;2024-02-26T02:16:20;8.90;81.40
11045;DHT22;9786;42.714;23.272;2024-02-26T02:18:51;8.90;81.70
11045;DHT22;9786;42.714;23.272;2024-02-26T02:21:21;9.00;81.80
11045;DHT22;9786;42.714;23.272;2024-02-26T02:23:51;9.00;81.70
11045;DHT22;9786;42.714;23.272;2024-02-26T02:26:20;9.00;81.90
11045;DHT22;9786;42.714;23.272;2024-02-26T02:28:49;9.00;81.70
11045;DHT22;9786;42.714;23.272;2024-02-26T02:31:18;9.00;81.80
11045;DHT22;9786;42.714;23.272;2024-02-26T02:33:48;9.00;81.60
11045;DHT22;9786;42.714;23.272;2024-02-26T02:36:17;9.00;82.10
11045;DHT22;9786;42.714;23.272;2024-02-26T02:38:52;9.00;82.10
11045;DHT22;9786;42.714;23.272;2024-02-26T02:41:21;8.90;82.10
11045;DHT22;9786;42.714;23.272;2024-02-26T02:43:50;9.00;82.40
11045;DHT22;9786;42.714;23.272;2024-02-26T02:46:19;9.00;82.10
11045;DHT22;9786;42.714;23.272;2024-02-26T02:48:48;9.00;82.20
11045;DHT22;9786;42.714;23.272;2024-02-26T02:51:17;9.00;82.00
11045;DHT22;9786;42.714;23.272;2024-02-26T02:53:47;9.00;82.50
11045;DHT22;9786;42.714;23.272;2024-02-26T02:56:17;9.00;82.20
11045;DHT22;9786;42.714;23.272;2024-02-26T02:58:46;9.10;82.40
11045;DHT22;9786;42.714;23.272;2024-02-26T03:01:15;9.10;82.10
11045;DHT22;9786;42.714;23.272;2024-02-26T03:03:44;9.10;82.10
11045;DHT22;9786;42.714;23.272;2024-02-26T03:06:14;9.10;82.00
11045;DHT22;9786;42.714;23.272;2024-02-26T03:08:43;9.10;82.20
11045;DHT22;9786;42.714;23.272;2024-02-26T03:11:16;9.00;82.70
11045;DHT22;9786;42.714;23.272;2024-02-26T03:13:47;9.00;82.30
11045;DHT22;9786;42.714;23.272;2024-02-26T03:16:17;9.00;82.50
11045;DHT22;9786;42.714;23.272;2024-02-26T03:18:48;9.00;82.90
11045;DHT22;9786;42.714;23.272;2024-02-26T03:21:18;9.00;82.80
11045;DHT22;9786;42.714;23.272;2024-02-26T03:23:47;9.00;82.60
11045;DHT22;9786;42.714;23.272;2024-02-26T03:26:16;8.90;82.80
11045;DHT22;9786;42.714;23.272;2024-02-26T03:28:46;8.90;82.90
11045;DHT22;9786;42.714;23.272;2024-02-26T03:31:15;8.90;82.90
11045;DHT22;9786;42.714;23.272;2024-02-26T03:33:44;8.90;82.70
11045;DHT22;9786;42.714;23.272;2024-02-26T03:36:16;8.90;82.70
11045;DHT22;9786;42.714;23.272;2024-02-26T03:38:45;9.00;82.80
11045;DHT22;9786;42.714;23.272;2024-02-26T03:41:16;9.00;82.70
11045;DHT22;9786;42.714;23.272;2024-02-26T03:43:46;9.00;82.60
11045;DHT22;9786;42.714;23.272;2024-02-26T03:46:15;9.00;82.70
11045;DHT22;9786;42.714;23.272;2024-02-26T03:48:44;9.00;82.80
11045;DHT22;9786;42.714;23.272;2024-02-26T03:51:13;8.90;83.50
11045;DHT22;9786;42.714;23.272;2024-02-26T03:53:42;8.80;83.70
11045;DHT22;9786;42.714;23.272;2024-02-26T03:56:11;8.90;83.50
11045;DHT22;9786;42.714;23.272;2024-02-26T03:58:40;9.00;83.50
11045;DHT22;9786;42.714;23.272;2024-02-26T04:01:10;9.00;83.20
11045;DHT22;9786;42.714;23.272;2024-02-26T04:03:39;9.00;83.20
11045;DHT22;9786;42.714;23.272;2024-02-26T04:06:09;8.90;83.20
11045;DHT22;9786;42.714;23.272;2024-02-26T04:08:38;8.90;83.20
11045;DHT22;9786;42.714;23.272;2024-02-26T04:11:06;8.90;83.20
11045;DHT22;9786;42.714;23.272;2024-02-26T04:13:35;9.00;83.40
11045;DHT22;9786;42.714;23.272;2024-02-26T04:16:05;8.90;83.30
11045;DHT22;9786;42.714;23.272;2024-02-26T04:18:37;8.80;83.70
11045;DHT22;9786;42.714;23.272;2024-02-26T04:21:06;8.90;83.70
11045;DHT22;9786;42.714;23.272;2024-02-26T04:23:35;8.90;83.80
11045;DHT22;9786;42.714;23.272;2024-02-26T04:26:04;8.90;83.80
11045;DHT22;9786;42.714;23.272;2024-02-26T04:28:33;9.00;83.70
11045;DHT22;9786;42.714;23.272;2024-02-26T04:31:03;8.90;83.40
11045;DHT22;9786;42.714;23.272;2024-02-26T04:33:35;8.90;83.20
11045;DHT22;9786;42.714;23.272;2024-02-26T04:36:05;8.70;84.80
11045;DHT22;9786;42.714;23.272;2024-02-26T04:38:34;8.70;85.50
11045;DHT22;9786;42.714;23.272;2024-02-26T04:41:02;8.70;84.90
11045;DHT22;9786;42.714;23.272;2024-02-26T04:43:31;8.80;84.50
11045;DHT22;9786;42.714;23.272;2024-02-26T04:45:58;8.70;85.00
11045;DHT22;9786;42.714;23.272;2024-02-26T04:48:27;8.60;85.40
11045;DHT22;9786;42.714;23.272;2024-02-26T04:50:58;8.70;85.40
11045;DHT22;9786;42.714;23.272;2024-02-26T04:53:26;8.80;85.10
11045;DHT22;9786;42.714;23.272;2024-02-26T04:55:55;8.90;84.50
11045;DHT22;9786;42.714;23.272;2024-02-26T04:58:25;9.00;84.30
11045;DHT22;9786;42.714;23.272;2024-02-26T05:00:53;9.00;84.00
11045;DHT22;9786;42.714;23.272;2024-02-26T05:03:23;9.00;84.10
11045;DHT22;9786;42.714;23.272;2024-02-26T05:05:51;9.00;84.20
11045;DHT22;9786;42.714;23.272;2024-02-26T05:08:22;9.00;84.20
11045;DHT22;9786;42.714;23.272;2024-02-26T05:10:50;8.90;84.30
11045;DHT22;9786;42.714;23.272;2024-02-26T05:13:19;8.90;84.40
11045;DHT22;9786;42.714;23.272;2024-02-26T05:15:48;8.80;84.90
11045;DHT22;9786;42.714;23.272;2024-02-26T05:18:19;8.70;85.10
11045;DHT22;9786;42.714;23.272;2024-02-26T05:20:48;8.60;85.30
11045;DHT22;9786;42.714;23.272;2024-02-26T05:23:17;8.70;85.10
11045;DHT22;9786;42.714;23.272;2024-02-26T05:25:51;8.70;85.10
11045;DHT22;9786;42.714;23.272;2024-02-26T05:28:19;8.70;85.10
11045;DHT22;9786;42.714;23.272;2024-02-26T05:30:48;8.70;84.80
11045;DHT22;9786;42.714;23.272;2024-02-26T05:33:17;8.70;85.00
11045;DHT22;9786;42.714;23.272;2024-02-26T05:35:47;8.70;85.40
11045;DHT22;9786;42.714;23.272;2024-02-26T05:38:15;8.80;85.30
11045;DHT22;9786;42.714;23.272;2024-02-26T05:40:44;8.90;84.70
11045;DHT22;9786;42.714;23.272;2024-02-26T05:43:14;9.00;84.30
11045;DHT22;9786;42.714;23.272;2024-02-26T05:45:44;9.00;84.30
11045;DHT22;9786;42.714;23.272;2024-02-26T05:48:12;9.00;83.90
11045;DHT22;9786;42.714;23.272;2024-02-26T05:50:41;9.10;84.10
11045;DHT22;9786;42.714;23.272;2024-02-26T05:53:10;9.10;84.10
11045;DHT22;9786;42.714;23.272;2024-02-26T05:55:39;9.10;84.10
11045;DHT22;9786;42.714;23.272;2024-02-26T05:58:07;9.10;84.20
11045;DHT22;9786;42.714;23.272;2024-02-26T06:00:37;9.10;84.10
11045;DHT22;9786;42.714;23.272;2024-02-26T06:03:06;9.10;84.30
11045;DHT22;9786;42.714;23.272;2024-02-26T06:05:35;9.20;84.50
11045;DHT22;9786;42.714;23.272;2024-02-26T06:08:05;9.20;84.30
11045;DHT22;9786;42.714;23.272;2024-02-26T06:10:34;9.10;84.60
11045;DHT22;9786;42.714;23.272;2024-02-26T06:13:03;9.10;84.70
11045;DHT22;9786;42.714;23.272;2024-02-26T06:15:31;9.20;84.50
11045;DHT22;9786;42.714;23.272;2024-02-26T06:18:02;9.30;84.20
11045;DHT22;9786;42.714;23.272;2024-02-26T06:20:31;9.30;83.90
11045;DHT22;9786;42.714;23.272;2024-02-26T06:22:59;9.40;83.70
11045;DHT22;9786;42.714;23.272;2024-02-26T06:25:28;9.40;83.40
11045;DHT22;9786;42.714;23.272;2024-02-26T06:27:57;9.40;83.30
11045;DHT22;9786;42.714;23.272;2024-02-26T06:30:28;9.40;83.20
11045;DHT22;9786;42.714;23.272;2024-02-26T06:32:57;9.50;83.20
11045;DHT22;9786;42.714;23.272;2024-02-26T06:35:28;9.40;83.80
11045;DHT22;9786;42.714;23.272;2024-02-26T06:37:56;9.30;84.20
11045;DHT22;9786;42.714;23.272;2024-02-26T06:40:27;9.20;84.50
11045;DHT22;9786;42.714;23.272;2024-02-26T06:42:56;9.00;85.10
11045;DHT22;9786;42.714;23.272;2024-02-26T06:45:24;9.00;85.00
11045;DHT22;9786;42.714;23.272;2024-02-26T06:47:59;9.20;85.00
11045;DHT22;9786;42.714;23.272;2024-02-26T06:50:30;9.40;85.40
11045;DHT22;9786;42.714;23.272;2024-02-26T06:52:58;9.40;84.80
11045;DHT22;9786;42.714;23.272;2024-02-26T06:55:27;9.40;84.90
11045;DHT22;9786;42.714;23.272;2024-02-26T06:58:06;9.30;85.30
11045;DHT22;9786;42.714;23.272;2024-02-26T07:00:35;9.40;84.80
11045;DHT22;9786;42.714;23.272;2024-02-26T07:03:08;9.50;84.40
11045;DHT22;9786;42.714;23.272;2024-02-26T07:05:39;9.50;84.20
11045;DHT22;9786;42.714;23.272;2024-02-26T07:08:11;9.50;84.40
11045;DHT22;9786;42.714;23.272;2024-02-26T07:10:41;9.50;84.10
11045;DHT22;9786;42.714;23.272;2024-02-26T07:13:11;9.50;84.50
11045;DHT22;9786;42.714;23.272;2024-02-26T07:15:39;9.70;84.30
11045;DHT22;9786;42.714;23.272;2024-02-26T07:18:14;9.80;82.70
11045;DHT22;9786;42.714;23.272;2024-02-26T07:20:44;9.70;82.60
11045;DHT22;9786;42.714;23.272;2024-02-26T07:23:13;9.60;82.80
11045;DHT22;9786;42.714;23.272;2024-02-26T07:25:41;9.50;83.00
11045;DHT22;9786;42.714;23.272;2024-02-26T07:28:14;9.60;83.20
11045;DHT22;9786;42.714;23.272;2024-02-26T07:30:43;9.50;82.90
11045;DHT22;9786;42.714;23.272;2024-02-26T07:33:12;9.30;83.50
11045;DHT22;9786;42.714;23.272;2024-02-26T07:35:41;9.50;84.00
11045;DHT22;9786;42.714;23.272;2024-02-26T07:38:11;9.40;83.70
11045;DHT22;9786;42.714;23.272;2024-02-26T07:40:58;9.50;83.50
11045;DHT22;9786;42.714;23.272;2024-02-26T07:43:33;9.60;82.80
11045;DHT22;9786;42.714;23.272;2024-02-26T07:46:01;9.60;83.10
11045;DHT22;9786;42.714;23.272;2024-02-26T07:48:30;9.60;83.10
11045;DHT22;9786;42.714;23.272;2024-02-26T07:50:59;9.40;83.50
11045;DHT22;9786;42.714;23.272;2024-02-26T07:53:32;9.40;83.90
11045;DHT22;9786;42.714;23.272;2024-02-26T07:56:03;9.40;84.00
11045;DHT22;9786;42.714;23.272;2024-02-26T07:58:32;9.40;84.30
11045;DHT22;9786;42.714;23.272;2024-02-26T08:01:00;9.30;84.50
11045;DHT22;9786;42.714;23.272;2024-02-26T08:03:29;9.30;84.80
11045;DHT22;9786;42.714;23.272;2024-02-26T08:05:59;9.30;84.60
11045;DHT22;9786;42.714;23.272;2024-02-26T08:08:27;9.50;84.30
11045;DHT22;9786;42.714;23.272;2024-02-26T08:10:57;9.50;83.70
11045;DHT22;9786;42.714;23.272;2024-02-26T08:13:26;9.60;83.40
11045;DHT22;9786;42.714;23.272;2024-02-26T08:15:55;9.70;83.50
11045;DHT22;9786;42.714;23.272;2024-02-26T08:18:23;9.60;82.90
11045;DHT22;9786;42.714;23.272;2024-02-26T08:20:52;9.80;83.20
11045;DHT22;9786;42.714;23.272;2024-02-26T08:23:26;9.90;82.60
11045;DHT22;9786;42.714;23.272;2024-02-26T08:26:05;10.00;82.50
11045;DHT22;9786;42.714;23.272;2024-02-26T08:29:54;10.00;82.30
11045;DHT22;9786;42.714;23.272;2024-02-26T08:32:37;10.30;80.90
11045;DHT22;9786;42.714;23.272;2024-02-26T08:35:06;10.50;79.30
11045;DHT22;9786;42.714;23.272;2024-02-26T08:37:35;10.50;79.60
11045;DHT22;9786;42.714;23.272;2024-02-26T08:40:05;10.70;79.50
11045;DHT22;9786;42.714;23.272;2024-02-26T08:42:39;11.00;78.60
11045;DHT22;9786;42.714;23.272;2024-02-26T08:45:08;11.20;78.20
11045;DHT22;9786;42.714;23.272;2024-02-26T08:47:38;11.10;77.10
11045;DHT22;9786;42.714;23.272;2024-02-26T08:50:08;11.20;76.60
11045;DHT22;9786;42.714;23.272;2024-02-26T08:52:39;11.00;77.10
11045;DHT22;9786;42.714;23.272;2024-02-26T08:55:08;11.20;77.30
11045;DHT22;9786;42.714;23.272;2024-02-26T08:57:38;11.50;77.10
11045;DHT22;9786;42.714;23.272;2024-02-26T09:00:08;11.60;76.40
11045;DHT22;9786;42.714;23.272;2024-02-26T09:02:37;11.60;75.20
11045;DHT22;9786;42.714;23.272;2024-02-26T09:05:07;11.70;75.90
11045;DHT22;9786;42.714;23.272;2024-02-26T09:07:36;11.90;74.80
11045;DHT22;9786;42.714;23.272;2024-02-26T09:10:05;12.00;74.30
11045;DHT22;9786;42.714;23.272;2024-02-26T09:12:36;12.10;73.90
11045;DHT22;9786;42.714;23.272;2024-02-26T09:15:08;12.10;75.00
11045;DHT22;9786;42.714;23.272;2024-02-26T09:17:37;12.00;74.30
11045;DHT22;9786;42.714;23.272;2024-02-26T09:20:06;12.00;74.80
11045;DHT22;9786;42.714;23.272;2024-02-26T09:22:36;12.10;74.70
11045;DHT22;9786;42.714;23.272;2024-02-26T09:25:06;12.00;75.80
11045;DHT22;9786;42.714;23.272;2024-02-26T09:27:35;12.30;75.20
11045;DHT22;9786;42.714;23.272;2024-02-26T09:30:11;12.40;74.60
11045;DHT22;9786;42.714;23.272;2024-02-26T09:32:41;12.30;74.40
11045;DHT22;9786;42.714;23.272;2024-02-26T09:35:09;12.40;74.10
11045;DHT22;9786;42.714;23.272;2024-02-26T09:37:38;12.60;74.20
11045;DHT22;9786;42.714;23.272;2024-02-26T09:40:08;12.80;72.40
11045;DHT22;9786;42.714;23.272;2024-02-26T09:42:43;12.90;71.40
11045;DHT22;9786;42.714;23.272;2024-02-26T09:45:19;12.80;71.80
11045;DHT22;9786;42.714;23.272;2024-02-26T09:47:50;12.80;70.90
11045;DHT22;9786;42.714;23.272;2024-02-26T09:50:20;13.10;70.40
11045;DHT22;9786;42.714;23.272;2024-02-26T09:52:51;12.90;69.60
11045;DHT22;9786;42.714;23.272;2024-02-26T09:55:21;12.80;69.40
11045;DHT22;9786;42.714;23.272;2024-02-26T09:57:51;12.80;68.70
11045;DHT22;9786;42.714;23.272;2024-02-26T10:00:22;12.70;68.70
11045;DHT22;9786;42.714;23.272;2024-02-26T10:02:51;12.90;69.40
11045;DHT22;9786;42.714;23.272;2024-02-26T10:05:21;13.00;67.50
11045;DHT22;9786;42.714;23.272;2024-02-26T10:07:52;13.00;67.00
11045;DHT22;9786;42.714;23.272;2024-02-26T10:10:23;12.90;66.80
11045;DHT22;9786;42.714;23.272;2024-02-26T10:12:52;13.00;66.30
11045;DHT22;9786;42.714;23.272;2024-02-26T10:15:22;13.00;66.50
11045;DHT22;9786;42.714;23.272;2024-02-26T10:17:51;13.00;65.80
11045;DHT22;9786;42.714;23.272;2024-02-26T10:20:20;12.90;65.70
11045;DHT22;9786;42.714;23.272;2024-02-26T10:22:51;13.20;65.60
11045;DHT22;9786;42.714;23.272;2024-02-26T10:25:20;13.60;65.20
11045;DHT22;9786;42.714;23.272;2024-02-26T10:27:49;13.70;63.60
11045;DHT22;9786;42.714;23.272;2024-02-26T10:30:20;13.70;63.40
11045;DHT22;9786;42.714;23.272;2024-02-26T10:32:51;13.80;62.60
11045;DHT22;9786;42.714;23.272;2024-02-26T10:35:20;13.50;62.10
11045;DHT22;9786;42.714;23.272;2024-02-26T10:37:50;13.50;62.70
11045;DHT22;9786;42.714;23.272;2024-02-26T10:40:19;13.50;62.20
11045;DHT22;9786;42.714;23.272;2024-02-26T10:42:48;13.50;62.60
11045;DHT22;9786;42.714;23.272;2024-02-26T10:45:17;13.40;62.90
11045;DHT22;9786;42.714;23.272;2024-02-26T10:47:46;13.30;62.90
11045;DHT22;9786;42.714;23.272;2024-02-26T10:50:16;13.20;62.70
11045;DHT22;9786;42.714;23.272;2024-02-26T10:52:45;13.00;63.10
11045;DHT22;9786;42.714;23.272;2024-02-26T10:55:16;13.00;63.00
11045;DHT22;9786;42.714;23.272;2024-02-26T10:57:48;13.10;63.60
11045;DHT22;9786;42.714;23.272;2024-02-26T11:00:19;13.20;63.00
11045;DHT22;9786;42.714;23.272;2024-02-26T11:02:48;13.20;62.50
11045;DHT22;9786;42.714;23.272;2024-02-26T11:05:19;13.20;62.80
11045;DHT22;9786;42.714;23.272;2024-02-26T11:07:49;13.40;63.20
11045;DHT22;9786;42.714;23.272;2024-02-26T11:10:18;13.40;62.20
11045;DHT22;9786;42.714;23.272;2024-02-26T11:12:48;13.40;62.40
11045;DHT22;9786;42.714;23.272;2024-02-26T11:15:18;13.40;62.40
11045;DHT22;9786;42.714;23.272;2024-02-26T11:17:48;13.50;62.20
11045;DHT22;9786;42.714;23.272;2024-02-26T11:20:19;13.40;62.20
11045;DHT22;9786;42.714;23.272;2024-02-26T11:22:48;13.40;62.00
11045;DHT22;9786;42.714;23.272;2024-02-26T11:25:19;13.50;62.20
11045;DHT22;9786;42.714;23.272;2024-02-26T11:27:51;13.50;61.40
11045;DHT22;9786;42.714;23.272;2024-02-26T11:30:22;13.50;61.30
11045;DHT22;9786;42.714;23.272;2024-02-26T11:32:52;13.40;61.50
11045;DHT22;9786;42.714;23.272;2024-02-26T11:35:23;13.30;62.30
11045;DHT22;9786;42.714;23.272;2024-02-26T11:37:53;13.40;61.90
11045;DHT22;9786;42.714;23.272;2024-02-26T11:40:24;13.50;61.90
11045;DHT22;9786;42.714;23.272;2024-02-26T11:42:53;13.60;61.50
11045;DHT22;9786;42.714;23.272;2024-02-26T11:45:48;13.50;61.40
11045;DHT22;9786;42.714;23.272;2024-02-26T11:48:23;13.70;61.30
11045;DHT22;9786;42.714;23.272;2024-02-26T11:50:55;13.70;60.40
11045;DHT22;9786;42.714;23.272;2024-02-26T11:53:25;13.50;61.00
11045;DHT22;9786;42.714;23.272;2024-02-26T11:56:13;13.50;61.00
11045;DHT22;9786;42.714;23.272;2024-02-26T11:58:42;13.40;61.00
11045;DHT22;9786;42.714;23.272;2024-02-26T12:01:38;13.40;60.90
11045;DHT22;9786;42.714;23.272;2024-02-26T12:04:09;13.30;61.50
11045;DHT22;9786;42.714;23.272;2024-02-26T12:06:46;13.40;61.20
11045;DHT22;9786;42.714;23.272;2024-02-26T12:09:31;13.50;60.50
11045;DHT22;9786;42.714;23.272;2024-02-26T12:12:01;13.50;60.00
11045;DHT22;9786;42.714;23.272;2024-02-26T12:14:34;13.60;60.00
11045;DHT22;9786;42.714;23.272;2024-02-26T12:17:03;13.50;59.70
11045;DHT22;9786;42.714;23.272;2024-02-26T12:19:35;13.80;59.30
11045;DHT22;9786;42.714;23.272;2024-02-26T12:22:13;13.90;59.30
11045;DHT22;9786;42.714;23.272;2024-02-26T12:24:42;13.90;59.10
11045;DHT22;9786;42.714;23.272;2024-02-26T12:27:11;13.80;59.10
11045;DHT22;9786;42.714;23.272;2024-02-26T12:29:40;13.90;59.20
11045;DHT22;9786;42.714;23.272;2024-02-26T12:32:09;13.80;58.50
11045;DHT22;9786;42.714;23.272;2024-02-26T12:34:39;13.90;57.60
11045;DHT22;9786;42.714;23.272;2024-02-26T12:37:12;14.00;57.30
11045;DHT22;9786;42.714;23.272;2024-02-26T12:39:41;13.80;57.20
11045;DHT22;9786;42.714;23.272;2024-02-26T12:42:10;13.70;57.10
11045;DHT22;9786;42.714;23.272;2024-02-26T12:44:47;13.80;57.10
11045;DHT22;9786;42.714;23.272;2024-02-26T12:47:45;13.80;57.10
11045;DHT22;9786;42.714;23.272;2024-02-26T12:50:15;13.90;56.90
11045;DHT22;9786;42.714;23.272;2024-02-26T12:52:47;14.20;57.00
11045;DHT22;9786;42.714;23.272;2024-02-26T12:55:19;14.30;55.60
11045;DHT22;9786;42.714;23.272;2024-02-26T12:57:50;14.20;55.50
11045;DHT22;9786;42.714;23.272;2024-02-26T13:00:21;14.00;56.00
11045;DHT22;9786;42.714;23.272;2024-02-26T13:02:52;14.00;56.10
11045;DHT22;9786;42.714;23.272;2024-02-26T13:05:23;14.00;55.50
11045;DHT22;9786;42.714;23.272;2024-02-26T13:07:54;14.10;55.90
11045;DHT22;9786;42.714;23.272;2024-02-26T13:10:23;14.10;55.40
11045;DHT22;9786;42.714;23.272;2024-02-26T13:12:53;14.20;55.20
11045;DHT22;9786;42.714;23.272;2024-02-26T13:15:22;14.20;55.10
11045;DHT22;9786;42.714;23.272;2024-02-26T13:17:51;14.30;54.40
11045;DHT22;9786;42.714;23.272;2024-02-26T13:20:27;14.20;55.00
11045;DHT22;9786;42.714;23.272;2024-02-26T13:23:03;14.20;55.40
11045;DHT22;9786;42.714;23.272;2024-02-26T13:25:33;14.10;55.00
11045;DHT22;9786;42.714;23.272;2024-02-26T13:28:07;14.20;55.70
11045;DHT22;9786;42.714;23.272;2024-02-26T13:30:37;14.20;55.70
11045;DHT22;9786;42.714;23.272;2024-02-26T13:33:10;14.30;55.60
11045;DHT22;9786;42.714;23.272;2024-02-26T13:35:40;14.30;55.60
11045;DHT22;9786;42.714;23.272;2024-02-26T13:38:10;14.30;54.80
11045;DHT22;9786;42.714;23.272;2024-02-26T13:40:39;14.30;54.40
11045;DHT22;9786;42.714;23.272;2024-02-26T13:43:08;14.50;54.50
11045;DHT22;9786;42.714;23.272;2024-02-26T13:45:38;14.30;54.10
11045;DHT22;9786;42.714;23.272;2024-02-26T13:48:08;14.30;54.20
11045;DHT22;9786;42.714;23.272;2024-02-26T13:50:39;14.20;54.00
11045;DHT22;9786;42.714;23.272;2024-02-26T13:53:12;14.30;54.20
11045;DHT22;9786;42.714;23.272;2024-02-26T13:55:41;14.30;53.80
11045;DHT22;9786;42.714;23.272;2024-02-26T13:58:12;14.40;54.20
11045;DHT22;9786;42.714;23.272;2024-02-26T14:00:42;14.40;54.40
11045;DHT22;9786;42.714;23.272;2024-02-26T14:03:11;14.40;54.30
11045;DHT22;9786;42.714;23.272;2024-02-26T14:05:40;14.50;54.30
11045;DHT22;9786;42.714;23.272;2024-02-26T14:08:16;14.40;53.60
11045;DHT22;9786;42.714;23.272;2024-02-26T14:10:45;14.50;53.30
11045;DHT22;9786;42.714;23.272;2024-02-26T14:13:13;14.40;53.00
11045;DHT22;9786;42.714;23.272;2024-02-26T14:15:42;14.40;53.10
11045;DHT22;9786;42.714;23.272;2024-02-26T14:18:11;14.50;53.20
11045;DHT22;9786;42.714;23.272;2024-02-26T14:20:40;14.50;52.70
11045;DHT22;9786;42.714;23.272;2024-02-26T14:23:09;14.50;52.60
11045;DHT22;9786;42.714;23.272;2024-02-26T14:25:41;14.70;52.50
11045;DHT22;9786;42.714;23.272;2024-02-26T14:28:10;14.60;52.20
11045;DHT22;9786;42.714;23.272;2024-02-26T14:30:48;14.60;52.10
11045;DHT22;9786;42.714;23.272;2024-02-26T14:33:17;14.60;52.50
11045;DHT22;9786;42.714;23.272;2024-02-26T14:35:45;14.70;52.80
11045;DHT22;9786;42.714;23.272;2024-02-26T14:38:14;14.50;52.20
11045;DHT22;9786;42.714;23.272;2024-02-26T14:40:45;14.70;52.50
11045;DHT22;9786;42.714;23.272;2024-02-26T14:43:13;14.70;51.60
11045;DHT22;9786;42.714;23.272;2024-02-26T14:45:42;14.70;51.70
11045;DHT22;9786;42.714;23.272;2024-02-26T14:48:11;14.70;51.60
11045;DHT22;9786;42.714;23.272;2024-02-26T14:50:40;14.50;51.60
11045;DHT22;9786;42.714;23.272;2024-02-26T14:53:09;14.40;51.70
11045;DHT22;9786;42.714;23.272;2024-02-26T14:55:38;14.50;52.10
11045;DHT22;9786;42.714;23.272;2024-02-26T14:58:13;14.40;51.50
11045;DHT22;9786;42.714;23.272;2024-02-26T15:00:44;14.40;51.50
11045;DHT22;9786;42.714;23.272;2024-02-26T15:03:13;14.40;51.40
11045;DHT22;9786;42.714;23.272;2024-02-26T15:05:42;14.40;51.40
11045;DHT22;9786;42.714;23.272;2024-02-26T15:08:11;14.40;51.90
11045;DHT22;9786;42.714;23.272;2024-02-26T15:10:42;14.40;52.20
11045;DHT22;9786;42.714;23.272;2024-02-26T15:13:16;14.30;51.40
11045;DHT22;9786;42.714;23.272;2024-02-26T15:15:49;14.30;51.50
11045;DHT22;9786;42.714;23.272;2024-02-26T15:18:19;14.30;51.00
11045;DHT22;9786;42.714;23.272;2024-02-26T15:20:48;14.30;50.30
11045;DHT22;9786;42.714;23.272;2024-02-26T15:23:17;14.30;49.80
11045;DHT22;9786;42.714;23.272;2024-02-26T15:25:45;14.30;49.70
11045;DHT22;9786;42.714;23.272;2024-02-26T15:28:16;14.30;50.30
11045;DHT22;9786;42.714;23.272;2024-02-26T15:30:45;14.30;50.30
11045;DHT22;9786;42.714;23.272;2024-02-26T15:33:14;14.20;50.00
11045;DHT22;9786;42.714;23.272;2024-02-26T15:35:42;14.20;50.20
11045;DHT22;9786;42.714;23.272;2024-02-26T15:38:12;14.20;50.00
11045;DHT22;9786;42.714;23.272;2024-02-26T15:40:41;14.20;50.30
11045;DHT22;9786;42.714;23.272;2024-02-26T15:43:11;14.20;50.30
11045;DHT22;9786;42.714;23.272;2024-02-26T15:45:43;14.20;50.60
11045;DHT22;9786;42.714;23.272;2024-02-26T15:48:12;14.30;50.50
11045;DHT22;9786;42.714;23.272;2024-02-26T15:50:41;14.30;50.50
11045;DHT22;9786;42.714;23.272;2024-02-26T15:53:10;14.20;50.50
11045;DHT22;9786;42.714;23.272;2024-02-26T15:55:39;14.20;50.70
11045;DHT22;9786;42.714;23.272;2024-02-26T15:58:08;14.20;50.70
11045;DHT22;9786;42.714;23.272;2024-02-26T16:00:42;14.20;50.90